This is the latest recevied weather packets stored in our database for station/object SQ7FJB-2. If no packets are shown the sender has not sent any weather packets the latest 10 day(s).
| Time | Temp. | Humidity | Pressure | Rain* | Wind** | Luminosity | Snow |
|---|---|---|---|---|---|---|---|
| 1777839114 | 11.67° C | 68% | 1013.4 hPa | 0 mm | - | - | - |
| 1777838501 | 12.22° C | 66% | 1013.5 hPa | 0 mm | - | - | - |
| 1777837901 | 12.22° C | 66% | 1013.5 hPa | 0 mm | - | - | - |
| 1777837289 | 12.22° C | 68% | 1013.6 hPa | 0 mm | - | - | - |
| 1777836689 | 12.78° C | 64% | 1013.5 hPa | 0 mm | - | - | - |
| 1777836077 | 13.33° C | 59% | 1013.5 hPa | 0 mm | - | - | - |
| 1777835464 | 13.33° C | 62% | 1013.4 hPa | 0 mm | - | - | - |
| 1777834852 | 14.44° C | 58% | 1013.4 hPa | 0 mm | - | - | - |
| 1777834239 | 15° C | 54% | 1013.3 hPa | 0 mm | - | - | - |
| 1777833626 | 15.56° C | 50% | 1013.3 hPa | 0 mm | - | - | - |
| 1777833014 | 16.67° C | 48% | 1013.2 hPa | 0 mm | - | - | - |
| 1777832403 | 17.22° C | 48% | 1013.2 hPa | 0 mm | - | - | - |
| 1777831801 | 18.33° C | 43% | 1013.2 hPa | 0 mm | - | - | - |
| 1777831189 | 19.44° C | 41% | 1013.1 hPa | 0 mm | - | - | - |
| 1777830588 | 20° C | 38% | 1013.1 hPa | 0 mm | - | - | - |
| 1777829988 | 21.11° C | 36% | 1013 hPa | 0 mm | - | - | - |
| 1777829376 | 21.67° C | 35% | 1013 hPa | 0 mm | - | - | - |
| 1777828777 | 22.22° C | 34% | 1012.9 hPa | 0 mm | - | - | - |
| 1777828176 | 23.33° C | 31% | 1012.9 hPa | 0 mm | - | - | - |
| 1777827564 | 23.33° C | 32% | 1012.9 hPa | 0 mm | - | - | - |
| 1777826964 | 23.33° C | 31% | 1012.9 hPa | 0 mm | - | - | - |
| 1777826351 | 23.89° C | 30% | 1012.9 hPa | 0 mm | - | - | - |
| 1777825739 | 23.89° C | 29% | 1013 hPa | 0 mm | - | - | - |
| 1777825132 | 23.89° C | 28% | 1012.9 hPa | 0 mm | - | - | - |
| 1777824526 | 24.44° C | 27% | 1013 hPa | 0 mm | - | - | - |
* Rain latest hour (hover to see other rain measurements)
** Current wind speed in m/s (hover to see current wind gust speed)